Oscar Dyson — WTEP — position and weather

sailwx.info

Track history (hours):
 
Tides and Currents Weather Stations Pressure Air Temp Water Temp Dewpoint Dewpoint Depression Visibility Wind Speed Wind Dir Waves Ship Positions

Oceanographic research ship Oscar Dyson (USA)

Ship's website: http://www.moc.noaa.gov/od/

Detailed information on ship capabilities available from University of Delaware's Ocean Information Center and ARCUS's ALIAS (Arctic Logistics Information and Support) project.

Last reported at 2018-Feb-15 17:00 UTC. Time now 2018-Feb-23 17:51 UTC.
Position N 57°42' W 152°24'.
Warning: this ship's position is 8 days out of date.

Type: Ship. MMSI: 369959000.

Wind from 190 at 1 knots

Barometer 1022.6 mb
Air temperature 0.2 ° C
Dewpoint -0.4 ° C
Water temperature 3.0 ° C

Date/timePositionNaut miles runAvg speedWind from/ knotsBaromVisibWave heightAir tempDewpointWater temp
2018-Feb-15 17:00N 57°42' W 152°24'0 0.0 190 / 11022.6 0.2-0.4 3.0
2018-Feb-15 14:00N 57°42' W 152°24'0 0.0 200 / 61022.5 0.4-2.3 3.8
2018-Feb-15 13:00N 57°42' W 152°24'0 0.0 220 / 41022.8 0.7-2.1 3.6
2018-Feb-15 09:00N 57°42' W 152°24'0 0.0 210 / 41024.0 0.7 0.7 4.1
2018-Feb-15 08:00N 57°42' W 152°24'0 0.0 250 / 41024.1 1.6-1.1 4.2
2018-Feb-15 07:00N 57°42' W 152°24'0 0.0 260 / 51024.3 1.1-0.3 3.5
2018-Feb-15 02:00N 57°42' W 152°24'0 0.0 030 / 21024.4 4.0-1.7 3.3
2018-Feb-15 01:00N 57°42' W 152°24'6 6.0 220 / 121024.4 4.0 2.3 3.8
2018-Feb-15 00:00N 57°36' W 152°24'0 0.0 200 / 141024.5 3.6 1.3 4.1
2018-Feb-14 23:00N 57°36' W 152°24'0 0.0 200 / 151024.8 3.8-0.2 4.1
2018-Feb-14 22:00N 57°36' W 152°24'0 0.0 210 / 81025.0 3.5 0.3 4.1
2018-Feb-14 21:00N 57°36' W 152°24'0 0.0 200 / 61025.5 3.0-0.0 4.2
2018-Feb-14 20:00N 57°36' W 152°24'0 0.0 190 / 101025.3 2.9 0.5 4.2
2018-Feb-14 19:00N 57°36' W 152°24'6 6.0 240 / 51025.6 2.2 0.2 4.1
2018-Feb-14 18:00N 57°42' W 152°24'6 6.4 210 / 121025.3 2.4 0.5 3.9
2018-Feb-14 17:00N 57°42' W 152°12'18 9.1 210 / 171025.3 2.8 0.4 4.6
2018-Feb-14 15:00N 57°24' W 152°06'1413.6 220 / 251026.3 3.7 1.9 4.3
2018-Feb-14 14:00N 57°12' W 152°18'1515.5 230 / 241027.0 4.0 2.1 5.3
2018-Feb-14 13:00N 57°00' W 152°36'9 8.9 230 / 231027.8 3.6 3.6 4.7
2018-Feb-14 12:00N 56°54' W 152°48'1615.5 240 / 241028.5 3.7 2.5 4.7
2018-Feb-14 11:00N 56°42' W 153°06'9 8.9 230 / 231028.9 3.9 3.2 5.0
2018-Feb-14 10:00N 56°36' W 153°18'1615.6 240 / 211029.3 4.0 1.9 5.0
2018-Feb-14 09:00N 56°24' W 153°36'1413.7 240 / 221029.7 4.0 1.3 5.0
2018-Feb-14 08:00N 56°12' W 153°48'1211.7 240 / 211029.7 4.2 2.2 4.9
2018-Feb-14 07:00N 56°06' W 154°06'1413.7 230 / 201030.0 4.6 2.7 5.3
2018-Feb-14 06:00N 55°54' W 154°18'9 9.0 240 / 201030.4 4.5 3.4 5.2
2018-Feb-14 05:00N 55°48' W 154°30'1615.7 240 / 201030.8 4.3 3.0 5.3
2018-Feb-14 04:00N 55°36' W 154°48'9 9.1 240 / 211030.9 4.4 3.3 5.4
2018-Feb-14 03:00N 55°30' W 155°00'1413.6 240 / 241030.7 4.1 1.9 5.4
2018-Feb-14 02:00N 55°30' W 155°24'1413.6 250 / 231030.4 4.2 2.7 4.8
2018-Feb-14 01:00N 55°30' W 155°48'1413.6 250 / 201030.8 4.2 4.0 4.7
2018-Feb-14 00:00N 55°30' W 156°12'1413.6 240 / 221030.3 4.2 4.2 4.8
2018-Feb-13 23:00N 55°30' W 156°36'1413.6 240 / 231030.5 4.2 4.2 4.6
2018-Feb-13 22:00N 55°30' W 157°00'1010.2 240 / 211030.5 4.1 4.1 4.6
2018-Feb-13 21:00N 55°30' W 157°18'1413.6 230 / 231030.0 4.1 4.1 4.4
2018-Feb-13 20:00N 55°30' W 157°42'1413.6 230 / 211029.6 3.9 3.9 4.3
2018-Feb-13 19:00N 55°30' W 158°06'1413.6 240 / 191029.6 4.0 4.0 4.2
2018-Feb-13 18:00N 55°30' W 158°30'1010.2 240 / 161029.8 4.0 4.0 4.2
2018-Feb-13 17:00N 55°30' W 158°48'1413.6 250 / 91029.8 3.7 3.7 4.1
2018-Feb-13 16:00N 55°30' W 159°12'1413.6 230 / 171029.5 3.7 3.7 4.1
2018-Feb-13 15:00N 55°30' W 159°36'1413.6 240 / 161028.9 3.6 3.6 4.3
2018-Feb-13 14:00N 55°30' W 160°00'1413.6 220 / 111028.8 3.6 1.0 4.3
2018-Feb-13 13:00N 55°30' W 160°24'1211.8 220 / 171028.9 3.5-0.0 4.1
2018-Feb-13 12:00N 55°24' W 160°42'1211.9 220 / 221028.7 3.6-0.1 4.1
2018-Feb-13 11:00N 55°18' W 161°00'1413.7 210 / 231028.3 3.6-1.6 4.3
2018-Feb-13 10:00N 55°18' W 161°24'1413.7 210 / 191028.2 3.3-0.6 3.6
2018-Feb-13 09:00N 55°18' W 161°48'9 9.1 210 / 191028.0 3.4 0.9 3.5
2018-Feb-13 08:00N 55°12' W 162°00'0 0.0 220 / 101028.0 3.1-0.0 4.1
2018-Feb-13 07:00N 55°12' W 162°00'0 0.0 210 / 11027.9 1.5-2.6 4.1
2018-Feb-13 05:00N 55°12' W 162°00'0 0.0 270 / 91028.4 2.9-5.2 4.1
2018-Feb-13 04:00N 55°12' W 162°00'0 0.0 240 / 121027.8 2.9-5.2 4.2
2018-Feb-13 03:00N 55°12' W 162°00'0 0.0 250 / 141026.8 3.3-5.5 4.0
2018-Feb-13 02:00N 55°12' W 162°00'7 6.8 250 / 161025.6 3.8-3.8 3.8
2018-Feb-13 01:00N 55°12' W 161°48'0 0.0 260 / 281023.8 3.8-3.7 3.6
2018-Feb-13 00:00N 55°12' W 161°48'0 0.0 260 / 191023.6 3.8-4.5 3.5
2018-Feb-12 23:00N 55°12' W 161°48'12 3.0 260 / 211022.4 4.1-4.5 3.5
2018-Feb-12 19:00N 55°18' W 161°30'7 6.9 240 / 131017.6 3.4 2.8 3.8
2018-Feb-12 18:00N 55°24' W 161°36'6 3.0 310 / 231016.0 2.4 2.4 3.3
2018-Feb-12 16:00N 55°18' W 161°36'3 3.4 240 / 161013.5 2.8 2.8 3.5
2018-Feb-12 15:00N 55°18' W 161°42'7 6.9 220 / 211011.7 2.6 2.6 3.4
2018-Feb-12 14:00N 55°12' W 161°48'0 0.0 260 / 171010.6 3.2 3.2 3.4
2018-Feb-12 13:00N 55°12' W 161°48'12 6.2 250 / 231009.3 3.1 3.1 3.5
2018-Feb-12 11:00N 55°00' W 161°54'1413.8 270 / 221007.8 3.6 3.6 3.7
2018-Feb-12 10:00N 55°00' W 162°18'18 9.1 280 / 201006.8 3.1 3.1 3.1
2018-Feb-12 08:00N 54°54' W 162°48'9 9.1 290 / 211004.0 3.4 3.4 3.8
2018-Feb-12 07:00N 55°00' W 163°00'6 6.0 300 / 231001.5 3.4 3.4 3.3
2018-Feb-12 06:00N 54°54' W 163°00'6 6.0 300 / 24999.7 3.4 3.4 3.3
2018-Feb-12 05:00N 55°00' W 163°00'3 3.4 310 / 25998.8 2.7 2.7 3.3
2018-Feb-12 04:00N 55°00' W 163°06'3 3.4 270 / 20998.1 2.5 2.5 3.3
2018-Feb-12 03:00N 55°00' W 163°00'6 6.0 270 / 21996.2 3.6 3.6 3.3
2018-Feb-12 02:00N 54°54' W 163°00'0 0.0 230 / 5995.6 4.2 4.2 3.3
2018-Feb-12 01:00N 54°54' W 163°00'7 6.9 170 / 16995.3 4.4 4.4 3.6
2018-Feb-12 00:00N 54°48' W 163°06'3 3.5 170 / 18994.9 4.7 4.7 3.3
2018-Feb-11 23:00N 54°48' W 163°12'1010.4 160 / 21995.5 5.7 5.7 3.1
2018-Feb-11 22:00N 54°48' W 162°54'1212.0 140 / 25996.6 5.0 5.0 3.7
2018-Feb-11 21:00N 54°42' W 162°36'7 6.9 140 / 23997.9 5.1 5.1 4.1
2018-Feb-11 20:00N 54°42' W 162°48'7 6.9 110 / 20998.6 4.6 4.6 4.1
2018-Feb-11 19:00N 54°42' W 162°36'7 6.9 080 / 22999.9 4.1 4.1 4.1
2018-Feb-11 18:00N 54°36' W 162°30'3 3.5 090 / 191002.0 2.9 2.9 4.3
2018-Feb-11 17:00N 54°36' W 162°36'7 3.5 080 / 251003.8 2.7 2.7 4.2
2018-Feb-11 15:00N 54°30' W 162°30'3 3.5 120 / 161008.1 3.0 3.0 4.3
2018-Feb-11 14:00N 54°30' W 162°24'7 6.9 120 / 181009.9 3.1 3.1 4.3
2018-Feb-11 13:00N 54°36' W 162°30'14 4.6 150 / 221011.0 3.5 3.5 4.3
2018-Feb-11 10:00N 54°24' W 162°18'1212.5 170 / 201011.7 4.6 4.6 4.3
2018-Feb-11 09:00N 54°36' W 162°12'1010.4 170 / 261011.1 4.3 4.3 4.4
2018-Feb-11 08:00N 54°36' W 161°54'7 7.0 180 / 271011.3 4.5 4.5 4.4
2018-Feb-11 07:00N 54°36' W 161°42'1212.0 180 / 251010.7 4.0 4.0 4.4
2018-Feb-11 06:00N 54°42' W 161°24'9 9.2 190 / 241010.3 3.8 3.8 4.4
2018-Feb-11 05:00N 54°48' W 161°12'7 6.9 170 / 251009.4 4.5 4.5 4.4
2018-Feb-11 04:00N 54°48' W 161°00'9 9.2 180 / 241008.6 4.8 4.8 4.8
2018-Feb-11 03:00N 54°54' W 160°48'9 9.1 180 / 241007.8 5.2 5.2 4.8
2018-Feb-11 02:00N 55°00' W 160°36'9 9.1 160 / 261007.2 5.0 5.0 4.6
2018-Feb-11 01:00N 55°06' W 160°24'1413.8 170 / 261006.8 4.5 4.5 4.5
2018-Feb-11 00:00N 55°18' W 160°12'9 9.1 160 / 231006.0 4.8 4.8 4.4
2018-Feb-10 23:00N 55°24' W 160°24'7 6.9 160 / 221005.1 5.6 5.6 4.4
2018-Feb-10 22:00N 55°30' W 160°18'6 6.0 120 / 221005.5 4.8 4.8 4.4
2018-Feb-10 21:00N 55°36' W 160°18'3 3.4 110 / 171005.5 4.6 4.6 4.4
2018-Feb-10 20:00N 55°36' W 160°24'1010.2 100 / 171005.4 4.8 4.8 4.3
2018-Feb-10 19:00N 55°36' W 160°06'3 3.4 090 / 221005.6 4.3 4.3 4.3
2018-Feb-10 18:00N 55°36' W 160°12'0 0.0 080 / 191005.0 4.3 4.3 4.3
2018-Feb-10 17:00N 55°36' W 160°12'1211.8 080 / 111005.1 4.4 4.4 4.3
2018-Feb-10 16:00N 55°30' W 159°54'0 0.0 110 / 91004.4 4.4 4.4 4.3
2018-Feb-10 15:00N 55°30' W 159°54'6 6.0 110 / 171004.6 4.3 4.3 4.3
2018-Feb-10 14:00N 55°36' W 159°54'1413.8 080 / 181004.8 4.2 4.2 4.2
2018-Feb-10 13:00N 55°24' W 160°06'1212.5 100 / 111004.4 4.3 4.3 4.3
2018-Feb-10 12:00N 55°12' W 160°12'1211.9 100 / 111003.9 5.0 5.0 4.5
2018-Feb-10 11:00N 55°06' W 160°30'9 9.1 130 / 141002.9 4.9 4.9 4.6
2018-Feb-10 10:00N 55°00' W 160°18'7 6.9 120 / 211002.6 4.6 4.6 4.5
2018-Feb-10 09:00N 55°06' W 160°24'0 0.0 130 / 241002.6 4.6 4.6 4.6
2018-Feb-10 08:00N 55°06' W 160°24'9 9.1 120 / 231001.5 4.4 4.4 4.5
2018-Feb-10 07:00N 55°12' W 160°12'0 0.0 130 / 161002.2 4.0 4.0 4.5
2018-Feb-10 06:00N 55°12' W 160°12'3 3.4 130 / 151001.5 4.3 4.3 4.5
2018-Feb-10 05:00N 55°12' W 160°18'0 0.0 120 / 171001.4 4.3 4.3 4.5
2018-Feb-10 04:00N 55°12' W 160°18'6 6.0 110 / 191000.8 4.2 4.2 4.5
2018-Feb-10 03:00N 55°18' W 160°18'7 6.9 100 / 121001.2 4.4 4.4 4.4
2018-Feb-10 02:00N 55°24' W 160°24'3 3.4 070 / 171000.8 4.3 4.3 4.4
2018-Feb-10 01:00N 55°24' W 160°30'1413.8 090 / 181001.2 4.5 4.5 4.4
2018-Feb-10 00:00N 55°36' W 160°18'7 6.8 050 / 341001.4 3.3 3.3 4.3
2018-Feb-09 23:00N 55°36' W 160°06'9 9.1 050 / 291002.0 3.2 3.2 4.2
2018-Feb-09 22:00N 55°30' W 159°54'9 9.1 050 / 271002.4 2.6 2.6 4.3
2018-Feb-09 21:00N 55°24' W 160°06'1212.5 060 / 301002.9 3.2 3.2 4.3
2018-Feb-09 20:00N 55°12' W 160°12'7 6.8 080 / 231002.2 4.4 4.4 4.5
2018-Feb-09 19:00N 55°12' W 160°24'7 6.8 050 / 261002.8 4.4 4.4 4.5
2018-Feb-09 18:00N 55°12' W 160°12'6 6.0 080 / 241003.2 4.6 4.6 4.5
2018-Feb-09 17:00N 55°18' W 160°12'0 0.0 060 / 271003.9 4.2 4.2 4.5
2018-Feb-09 16:00N 55°18' W 160°12'7 6.9 060 / 321005.2 3.7 3.7 4.4
2018-Feb-09 15:00N 55°24' W 160°18'7 6.8 050 / 371006.4 3.5 3.5 4.4
2018-Feb-09 14:00N 55°24' W 160°30'3 3.4 060 / 381007.5 3.4 3.4 4.3
2018-Feb-09 13:00N 55°24' W 160°36'9 4.5 070 / 321008.3 3.5 3.5 4.3
2018-Feb-09 11:00N 55°30' W 160°24'0 0.0 050 / 381010.8 2.2 2.2 4.3
2018-Feb-09 10:00N 55°30' W 160°24'3 3.4 060 / 441010.9 4.2 4.2 4.3
2018-Feb-09 09:00N 55°30' W 160°18'0 0.0 060 / 391012.0 2.2 2.2 4.4
2018-Feb-09 08:00N 55°30' W 160°18'6 6.0 070 / 351013.8 1.9 1.9 4.3
2018-Feb-09 07:00N 55°36' W 160°18'3 3.4 080 / 321014.2 1.8 1.8 4.3
2018-Feb-09 06:00N 55°36' W 160°12'6 6.0 080 / 361013.8 2.2 2.2 4.4
2018-Feb-09 05:00N 55°30' W 160°12'7 6.9 090 / 351014.3 2.8 2.8 4.4
2018-Feb-09 04:00N 55°36' W 160°06'6 6.0 080 / 351015.1 2.5 2.5 4.3
2018-Feb-09 03:00N 55°30' W 160°06'7 6.9 070 / 401015.1 3.4 1.7 4.4
2018-Feb-09 02:00N 55°36' W 160°00'3 3.4 090 / 291016.6 3.8 1.2 4.3
2018-Feb-09 01:00N 55°36' W 159°54'7 6.9 070 / 371017.8 3.6 1.7 4.3
2018-Feb-09 00:00N 55°30' W 160°00'1413.8 080 / 341018.5 3.6 1.8 4.3
2018-Feb-08 23:00N 55°42' W 159°48'7 6.9 070 / 321019.9 3.1 2.1 4.4
2018-Feb-08 22:00N 55°48' W 159°42'7 6.7 090 / 191021.6 2.7 1.3 4.3
2018-Feb-08 21:00N 55°48' W 159°54'9 9.0 090 / 201022.0 3.1 1.5 4.4
2018-Feb-08 20:00N 55°42' W 159°42'0 0.0 060 / 241021.8 2.9 1.5 4.7
2018-Feb-08 19:00N 55°42' W 159°42'3 3.4 090 / 251022.1 2.6 1.1 4.7
2018-Feb-08 18:00N 55°42' W 159°48'3 3.4 070 / 261022.1 2.7 1.5 4.3
2018-Feb-08 17:00N 55°42' W 159°54'1212.0 070 / 211022.5 2.8 2.8 4.1
2018-Feb-08 16:00N 55°30' W 159°54'6 6.0 090 / 241021.9 2.6 2.6 4.3
2018-Feb-08 15:00N 55°24' W 159°54'9 9.1 090 / 181022.7 2.8 2.8 4.3
2018-Feb-08 14:00N 55°30' W 159°42'3 3.4 080 / 211023.7 2.6 2.2 4.2
2018-Feb-08 13:00N 55°30' W 159°36'1413.8 090 / 201024.0 2.6 2.5 4.1
2018-Feb-08 12:00N 55°18' W 159°48'7 6.8 110 / 191023.8 2.7 2.2 4.4
2018-Feb-08 11:00N 55°18' W 159°36'1010.2 100 / 281024.1 2.8 1.7 4.2
2018-Feb-08 10:00N 55°18' W 159°18'6 6.0 100 / 171025.2 2.9 1.4 4.2
2018-Feb-08 09:00N 55°24' W 159°18'3 3.4 100 / 171025.4 2.9 1.3 4.1
2018-Feb-08 08:00N 55°24' W 159°24'6 6.0 100 / 161025.3 2.6 2.1 4.2
2018-Feb-08 07:00N 55°30' W 159°24'7 3.4 110 / 201025.1 2.9 2.1 4.2
2018-Feb-08 05:00N 55°24' W 159°18'1212.0 120 / 151024.4 2.9 2.9 4.1
2018-Feb-08 04:00N 55°12' W 159°18'1212.5 140 / 221024.0 2.9 2.9 4.2
2018-Feb-08 03:00N 55°24' W 159°12'1211.8 120 / 211024.3 2.9 2.9 4.2
2018-Feb-08 02:00N 55°30' W 158°54'1212.5 150 / 131024.4 3.4 2.2 4.1
2018-Feb-08 01:00N 55°18' W 159°00'7 6.9 160 / 121023.8 3.4 2.0 4.3
2018-Feb-08 00:00N 55°12' W 159°06'9 9.1 160 / 161023.8 3.6 2.1 4.3
2018-Feb-07 23:00N 55°18' W 158°54'0 0.0 150 / 181024.0 3.7 2.3 4.3
2018-Feb-07 22:00N 55°18' W 158°54'0 0.0 160 / 121024.3 3.6 2.9 4.2
2018-Feb-07 21:00N 55°18' W 158°54'7 6.9 170 / 121024.0 3.6 3.6 4.6
2018-Feb-07 20:00N 55°24' W 158°48'9 9.1 150 / 141023.7 3.2 3.2 4.1
2018-Feb-07 19:00N 55°30' W 158°36'7 6.9 180 / 181023.5 3.2 3.2 4.1
2018-Feb-07 18:00N 55°24' W 158°42'1413.8 180 / 161022.6 3.0 3.0 4.6
2018-Feb-07 17:00N 55°12' W 158°54'7 6.9 160 / 131021.8 3.0 3.0 4.3
2018-Feb-07 16:00N 55°06' W 158°48'9 9.1 150 / 161021.1 2.5 2.5 4.3
2018-Feb-07 15:00N 55°12' W 158°36'7 6.8 170 / 141020.9 3.0 3.0 4.5
2018-Feb-07 14:00N 55°12' W 158°24'7 6.9 180 / 101020.7 4.2 4.2 4.5
2018-Feb-07 13:00N 55°18' W 158°30'0 0.0 160 / 71020.5 4.3 4.3 4.3
2018-Feb-07 12:00N 55°18' W 158°30'6 6.0 160 / 71020.3 4.3 4.3 4.5
2018-Feb-07 11:00N 55°24' W 158°30'7 6.9 150 / 91019.8 4.6 3.4 4.5
2018-Feb-07 10:00N 55°18' W 158°24'1413.8 190 / 91019.8 4.4 4.1 4.4
2018-Feb-07 09:00N 55°06' W 158°36'7 6.9 180 / 101019.1 4.5 4.4 4.6
2018-Feb-07 08:00N 55°00' W 158°42'3 3.4 180 / 81018.6 4.4 4.4 4.3
2018-Feb-07 07:00N 55°00' W 158°36'9 9.1 160 / 91017.9 4.4 4.4 4.5
2018-Feb-07 06:00N 55°06' W 158°24'1413.8 180 / 101017.2 4.2 3.7 4.7
2018-Feb-07 05:00N 55°18' W 158°12'1010.2 180 / 161016.8 4.4 4.4 4.5
2018-Feb-07 04:00N 55°18' W 157°54'1010.2 180 / 151016.4 4.2 4.2 4.4
2018-Feb-07 03:00N 55°18' W 157°36'1413.7 190 / 151015.8 4.3 3.8 4.8
2018-Feb-07 02:00N 55°18' W 157°12'2412.0 190 / 201015.4 4.4 3.0 4.7
2018-Feb-07 00:00N 55°18' W 156°30'2423.7 200 / 131013.910.8 4.3 4.1 4.8
2018-Feb-06 23:00N 55°30' W 155°54'0 0.0 200 / 151015.2 4.6 2.9 5.3
2018-Feb-06 22:00N 55°30' W 155°54'1010.2 200 / 151015.2 4.6 2.9 5.3
2018-Feb-06 21:00N 55°30' W 155°36'   170 / 191015.2 3.8 3.8 5.3
Track history (hours):
 
Tides and Currents Weather Stations Pressure Air Temp Water Temp Dewpoint Dewpoint Depression Visibility Wind Speed Wind Dir Waves Ship Positions

Oceanographic research ship Oscar Dyson (USA)

Ship's website: http://www.moc.noaa.gov/od/

Detailed information on ship capabilities available from University of Delaware's Ocean Information Center and ARCUS's ALIAS (Arctic Logistics Information and Support) project.

Last reported at 2018-Feb-15 17:00 UTC. Time now 2018-Feb-23 17:51 UTC.
Position N 57°42' W 152°24'.
Warning: this ship's position is 8 days out of date.

Type: Ship. MMSI: 369959000.

Wind from 190 at 1 knots

Barometer 1022.6 mb
Air temperature 0.2 ° C
Dewpoint -0.4 ° C
Water temperature 3.0 ° C

Date/timePositionNaut miles runAvg speedWind from/ knotsBaromVisibWave heightAir tempDewpointWater temp
2018-Feb-15 17:00N 57°42' W 152°24'0 0.0 190 / 11022.6 0.2-0.4 3.0
2018-Feb-15 14:00N 57°42' W 152°24'0 0.0 200 / 61022.5 0.4-2.3 3.8
2018-Feb-15 13:00N 57°42' W 152°24'0 0.0 220 / 41022.8 0.7-2.1 3.6
2018-Feb-15 09:00N 57°42' W 152°24'0 0.0 210 / 41024.0 0.7 0.7 4.1
2018-Feb-15 08:00N 57°42' W 152°24'0 0.0 250 / 41024.1 1.6-1.1 4.2
2018-Feb-15 07:00N 57°42' W 152°24'0 0.0 260 / 51024.3 1.1-0.3 3.5
2018-Feb-15 02:00N 57°42' W 152°24'0 0.0 030 / 21024.4 4.0-1.7 3.3
2018-Feb-15 01:00N 57°42' W 152°24'6 6.0 220 / 121024.4 4.0 2.3 3.8
2018-Feb-15 00:00N 57°36' W 152°24'0 0.0 200 / 141024.5 3.6 1.3 4.1
2018-Feb-14 23:00N 57°36' W 152°24'0 0.0 200 / 151024.8 3.8-0.2 4.1
2018-Feb-14 22:00N 57°36' W 152°24'0 0.0 210 / 81025.0 3.5 0.3 4.1
2018-Feb-14 21:00N 57°36' W 152°24'0 0.0 200 / 61025.5 3.0-0.0 4.2
2018-Feb-14 20:00N 57°36' W 152°24'0 0.0 190 / 101025.3 2.9 0.5 4.2
2018-Feb-14 19:00N 57°36' W 152°24'6 6.0 240 / 51025.6 2.2 0.2 4.1
2018-Feb-14 18:00N 57°42' W 152°24'6 6.4 210 / 121025.3 2.4 0.5 3.9
2018-Feb-14 17:00N 57°42' W 152°12'18 9.1 210 / 171025.3 2.8 0.4 4.6
2018-Feb-14 15:00N 57°24' W 152°06'1413.6 220 / 251026.3 3.7 1.9 4.3
2018-Feb-14 14:00N 57°12' W 152°18'1515.5 230 / 241027.0 4.0 2.1 5.3
2018-Feb-14 13:00N 57°00' W 152°36'9 8.9 230 / 231027.8 3.6 3.6 4.7
2018-Feb-14 12:00N 56°54' W 152°48'1615.5 240 / 241028.5 3.7 2.5 4.7
2018-Feb-14 11:00N 56°42' W 153°06'9 8.9 230 / 231028.9 3.9 3.2 5.0
2018-Feb-14 10:00N 56°36' W 153°18'1615.6 240 / 211029.3 4.0 1.9 5.0
2018-Feb-14 09:00N 56°24' W 153°36'1413.7 240 / 221029.7 4.0 1.3 5.0
2018-Feb-14 08:00N 56°12' W 153°48'1211.7 240 / 211029.7 4.2 2.2 4.9
2018-Feb-14 07:00N 56°06' W 154°06'1413.7 230 / 201030.0 4.6 2.7 5.3
2018-Feb-14 06:00N 55°54' W 154°18'9 9.0 240 / 201030.4 4.5 3.4 5.2
2018-Feb-14 05:00N 55°48' W 154°30'1615.7 240 / 201030.8 4.3 3.0 5.3
2018-Feb-14 04:00N 55°36' W 154°48'9 9.1 240 / 211030.9 4.4 3.3 5.4
2018-Feb-14 03:00N 55°30' W 155°00'1413.6 240 / 241030.7 4.1 1.9 5.4
2018-Feb-14 02:00N 55°30' W 155°24'1413.6 250 / 231030.4 4.2 2.7 4.8
2018-Feb-14 01:00N 55°30' W 155°48'1413.6 250 / 201030.8 4.2 4.0 4.7
2018-Feb-14 00:00N 55°30' W 156°12'1413.6 240 / 221030.3 4.2 4.2 4.8
2018-Feb-13 23:00N 55°30' W 156°36'1413.6 240 / 231030.5 4.2 4.2 4.6
2018-Feb-13 22:00N 55°30' W 157°00'1010.2 240 / 211030.5 4.1 4.1 4.6
2018-Feb-13 21:00N 55°30' W 157°18'1413.6 230 / 231030.0 4.1 4.1 4.4
2018-Feb-13 20:00N 55°30' W 157°42'1413.6 230 / 211029.6 3.9 3.9 4.3
2018-Feb-13 19:00N 55°30' W 158°06'1413.6 240 / 191029.6 4.0 4.0 4.2
2018-Feb-13 18:00N 55°30' W 158°30'1010.2 240 / 161029.8 4.0 4.0 4.2
2018-Feb-13 17:00N 55°30' W 158°48'1413.6 250 / 91029.8 3.7 3.7 4.1
2018-Feb-13 16:00N 55°30' W 159°12'1413.6 230 / 171029.5 3.7 3.7 4.1
2018-Feb-13 15:00N 55°30' W 159°36'1413.6 240 / 161028.9 3.6 3.6 4.3
2018-Feb-13 14:00N 55°30' W 160°00'1413.6 220 / 111028.8 3.6 1.0 4.3
2018-Feb-13 13:00N 55°30' W 160°24'1211.8 220 / 171028.9 3.5-0.0 4.1
2018-Feb-13 12:00N 55°24' W 160°42'1211.9 220 / 221028.7 3.6-0.1 4.1
2018-Feb-13 11:00N 55°18' W 161°00'1413.7 210 / 231028.3 3.6-1.6 4.3
2018-Feb-13 10:00N 55°18' W 161°24'1413.7 210 / 191028.2 3.3-0.6 3.6
2018-Feb-13 09:00N 55°18' W 161°48'9 9.1 210 / 191028.0 3.4 0.9 3.5
2018-Feb-13 08:00N 55°12' W 162°00'0 0.0 220 / 101028.0 3.1-0.0 4.1
2018-Feb-13 07:00N 55°12' W 162°00'0 0.0 210 / 11027.9 1.5-2.6 4.1
2018-Feb-13 05:00N 55°12' W 162°00'0 0.0 270 / 91028.4 2.9-5.2 4.1
2018-Feb-13 04:00N 55°12' W 162°00'0 0.0 240 / 121027.8 2.9-5.2 4.2
2018-Feb-13 03:00N 55°12' W 162°00'0 0.0 250 / 141026.8 3.3-5.5 4.0
2018-Feb-13 02:00N 55°12' W 162°00'7 6.8 250 / 161025.6 3.8-3.8 3.8
2018-Feb-13 01:00N 55°12' W 161°48'0 0.0 260 / 281023.8 3.8-3.7 3.6
2018-Feb-13 00:00N 55°12' W 161°48'0 0.0 260 / 191023.6 3.8-4.5 3.5
2018-Feb-12 23:00N 55°12' W 161°48'12 3.0 260 / 211022.4 4.1-4.5 3.5
2018-Feb-12 19:00N 55°18' W 161°30'7 6.9 240 / 131017.6 3.4 2.8 3.8
2018-Feb-12 18:00N 55°24' W 161°36'6 3.0 310 / 231016.0 2.4 2.4 3.3
2018-Feb-12 16:00N 55°18' W 161°36'3 3.4 240 / 161013.5 2.8 2.8 3.5
2018-Feb-12 15:00N 55°18' W 161°42'7 6.9 220 / 211011.7 2.6 2.6 3.4
2018-Feb-12 14:00N 55°12' W 161°48'0 0.0 260 / 171010.6 3.2 3.2 3.4
2018-Feb-12 13:00N 55°12' W 161°48'12 6.2 250 / 231009.3 3.1 3.1 3.5
2018-Feb-12 11:00N 55°00' W 161°54'1413.8 270 / 221007.8 3.6 3.6 3.7
2018-Feb-12 10:00N 55°00' W 162°18'18 9.1 280 / 201006.8 3.1 3.1 3.1
2018-Feb-12 08:00N 54°54' W 162°48'9 9.1 290 / 211004.0 3.4 3.4 3.8
2018-Feb-12 07:00N 55°00' W 163°00'6 6.0 300 / 231001.5 3.4 3.4 3.3
2018-Feb-12 06:00N 54°54' W 163°00'6 6.0 300 / 24999.7 3.4 3.4 3.3
2018-Feb-12 05:00N 55°00' W 163°00'3 3.4 310 / 25998.8 2.7 2.7 3.3
2018-Feb-12 04:00N 55°00' W 163°06'3 3.4 270 / 20998.1 2.5 2.5 3.3
2018-Feb-12 03:00N 55°00' W 163°00'6 6.0 270 / 21996.2 3.6 3.6 3.3
2018-Feb-12 02:00N 54°54' W 163°00'0 0.0 230 / 5995.6 4.2 4.2 3.3
2018-Feb-12 01:00N 54°54' W 163°00'7 6.9 170 / 16995.3 4.4 4.4 3.6
2018-Feb-12 00:00N 54°48' W 163°06'3 3.5 170 / 18994.9 4.7 4.7 3.3
2018-Feb-11 23:00N 54°48' W 163°12'1010.4 160 / 21995.5 5.7 5.7 3.1
2018-Feb-11 22:00N 54°48' W 162°54'1212.0 140 / 25996.6 5.0 5.0 3.7
2018-Feb-11 21:00N 54°42' W 162°36'7 6.9 140 / 23997.9 5.1 5.1 4.1
2018-Feb-11 20:00N 54°42' W 162°48'7 6.9 110 / 20998.6 4.6 4.6 4.1
2018-Feb-11 19:00N 54°42' W 162°36'7 6.9 080 / 22999.9 4.1 4.1 4.1
2018-Feb-11 18:00N 54°36' W 162°30'3 3.5 090 / 191002.0 2.9 2.9 4.3
2018-Feb-11 17:00N 54°36' W 162°36'7 3.5 080 / 251003.8 2.7 2.7 4.2
2018-Feb-11 15:00N 54°30' W 162°30'3 3.5 120 / 161008.1 3.0 3.0 4.3
2018-Feb-11 14:00N 54°30' W 162°24'7 6.9 120 / 181009.9 3.1 3.1 4.3
2018-Feb-11 13:00N 54°36' W 162°30'14 4.6 150 / 221011.0 3.5 3.5 4.3
2018-Feb-11 10:00N 54°24' W 162°18'1212.5 170 / 201011.7 4.6 4.6 4.3
2018-Feb-11 09:00N 54°36' W 162°12'1010.4 170 / 261011.1 4.3 4.3 4.4
2018-Feb-11 08:00N 54°36' W 161°54'7 7.0 180 / 271011.3 4.5 4.5 4.4
2018-Feb-11 07:00N 54°36' W 161°42'1212.0 180 / 251010.7 4.0 4.0 4.4
2018-Feb-11 06:00N 54°42' W 161°24'9 9.2 190 / 241010.3 3.8 3.8 4.4
2018-Feb-11 05:00N 54°48' W 161°12'7 6.9 170 / 251009.4 4.5 4.5 4.4
2018-Feb-11 04:00N 54°48' W 161°00'9 9.2 180 / 241008.6 4.8 4.8 4.8
2018-Feb-11 03:00N 54°54' W 160°48'9 9.1 180 / 241007.8 5.2 5.2 4.8
2018-Feb-11 02:00N 55°00' W 160°36'9 9.1 160 / 261007.2 5.0 5.0 4.6
2018-Feb-11 01:00N 55°06' W 160°24'1413.8 170 / 261006.8 4.5 4.5 4.5
2018-Feb-11 00:00N 55°18' W 160°12'9 9.1 160 / 231006.0 4.8 4.8 4.4
2018-Feb-10 23:00N 55°24' W 160°24'7 6.9 160 / 221005.1 5.6 5.6 4.4
2018-Feb-10 22:00N 55°30' W 160°18'6 6.0 120 / 221005.5 4.8 4.8 4.4
2018-Feb-10 21:00N 55°36' W 160°18'3 3.4 110 / 171005.5 4.6 4.6 4.4
2018-Feb-10 20:00N 55°36' W 160°24'1010.2 100 / 171005.4 4.8 4.8 4.3
2018-Feb-10 19:00N 55°36' W 160°06'3 3.4 090 / 221005.6 4.3 4.3 4.3
2018-Feb-10 18:00N 55°36' W 160°12'0 0.0 080 / 191005.0 4.3 4.3 4.3
2018-Feb-10 17:00N 55°36' W 160°12'1211.8 080 / 111005.1 4.4 4.4 4.3
2018-Feb-10 16:00N 55°30' W 159°54'0 0.0 110 / 91004.4 4.4 4.4 4.3
2018-Feb-10 15:00N 55°30' W 159°54'6 6.0 110 / 171004.6 4.3 4.3 4.3
2018-Feb-10 14:00N 55°36' W 159°54'1413.8 080 / 181004.8 4.2 4.2 4.2
2018-Feb-10 13:00N 55°24' W 160°06'1212.5 100 / 111004.4 4.3 4.3 4.3
2018-Feb-10 12:00N 55°12' W 160°12'1211.9 100 / 111003.9 5.0 5.0 4.5
2018-Feb-10 11:00N 55°06' W 160°30'9 9.1 130 / 141002.9 4.9 4.9 4.6
2018-Feb-10 10:00N 55°00' W 160°18'7 6.9 120 / 211002.6 4.6 4.6 4.5
2018-Feb-10 09:00N 55°06' W 160°24'0 0.0 130 / 241002.6 4.6 4.6 4.6
2018-Feb-10 08:00N 55°06' W 160°24'9 9.1 120 / 231001.5 4.4 4.4 4.5
2018-Feb-10 07:00N 55°12' W 160°12'0 0.0 130 / 161002.2 4.0 4.0 4.5
2018-Feb-10 06:00N 55°12' W 160°12'3 3.4 130 / 151001.5 4.3 4.3 4.5
2018-Feb-10 05:00N 55°12' W 160°18'0 0.0 120 / 171001.4 4.3 4.3 4.5
2018-Feb-10 04:00N 55°12' W 160°18'6 6.0 110 / 191000.8 4.2 4.2 4.5
2018-Feb-10 03:00N 55°18' W 160°18'7 6.9 100 / 121001.2 4.4 4.4 4.4
2018-Feb-10 02:00N 55°24' W 160°24'3 3.4 070 / 171000.8 4.3 4.3 4.4
2018-Feb-10 01:00N 55°24' W 160°30'1413.8 090 / 181001.2 4.5 4.5 4.4
2018-Feb-10 00:00N 55°36' W 160°18'7 6.8 050 / 341001.4 3.3 3.3 4.3
2018-Feb-09 23:00N 55°36' W 160°06'9 9.1 050 / 291002.0 3.2 3.2 4.2
2018-Feb-09 22:00N 55°30' W 159°54'9 9.1 050 / 271002.4 2.6 2.6 4.3
2018-Feb-09 21:00N 55°24' W 160°06'1212.5 060 / 301002.9 3.2 3.2 4.3
2018-Feb-09 20:00N 55°12' W 160°12'7 6.8 080 / 231002.2 4.4 4.4 4.5
2018-Feb-09 19:00N 55°12' W 160°24'7 6.8 050 / 261002.8 4.4 4.4 4.5
2018-Feb-09 18:00N 55°12' W 160°12'6 6.0 080 / 241003.2 4.6 4.6 4.5
2018-Feb-09 17:00N 55°18' W 160°12'0 0.0 060 / 271003.9 4.2 4.2 4.5
2018-Feb-09 16:00N 55°18' W 160°12'7 6.9 060 / 321005.2 3.7 3.7 4.4
2018-Feb-09 15:00N 55°24' W 160°18'7 6.8 050 / 371006.4 3.5 3.5 4.4
2018-Feb-09 14:00N 55°24' W 160°30'3 3.4 060 / 381007.5 3.4 3.4 4.3
2018-Feb-09 13:00N 55°24' W 160°36'9 4.5 070 / 321008.3 3.5 3.5 4.3
2018-Feb-09 11:00N 55°30' W 160°24'0 0.0 050 / 381010.8 2.2 2.2 4.3
2018-Feb-09 10:00N 55°30' W 160°24'3 3.4 060 / 441010.9 4.2 4.2 4.3
2018-Feb-09 09:00N 55°30' W 160°18'0 0.0 060 / 391012.0 2.2 2.2 4.4
2018-Feb-09 08:00N 55°30' W 160°18'6 6.0 070 / 351013.8 1.9 1.9 4.3
2018-Feb-09 07:00N 55°36' W 160°18'3 3.4 080 / 321014.2 1.8 1.8 4.3
2018-Feb-09 06:00N 55°36' W 160°12'6 6.0 080 / 361013.8 2.2 2.2 4.4
2018-Feb-09 05:00N 55°30' W 160°12'7 6.9 090 / 351014.3 2.8 2.8 4.4
2018-Feb-09 04:00N 55°36' W 160°06'6 6.0 080 / 351015.1 2.5 2.5 4.3
2018-Feb-09 03:00N 55°30' W 160°06'7 6.9 070 / 401015.1 3.4 1.7 4.4
2018-Feb-09 02:00N 55°36' W 160°00'3 3.4 090 / 291016.6 3.8 1.2 4.3
2018-Feb-09 01:00N 55°36' W 159°54'7 6.9 070 / 371017.8 3.6 1.7 4.3
2018-Feb-09 00:00N 55°30' W 160°00'1413.8 080 / 341018.5 3.6 1.8 4.3
2018-Feb-08 23:00N 55°42' W 159°48'7 6.9 070 / 321019.9 3.1 2.1 4.4
2018-Feb-08 22:00N 55°48' W 159°42'7 6.7 090 / 191021.6 2.7 1.3 4.3
2018-Feb-08 21:00N 55°48' W 159°54'9 9.0 090 / 201022.0 3.1 1.5 4.4
2018-Feb-08 20:00N 55°42' W 159°42'0 0.0 060 / 241021.8 2.9 1.5 4.7
2018-Feb-08 19:00N 55°42' W 159°42'3 3.4 090 / 251022.1 2.6 1.1 4.7
2018-Feb-08 18:00N 55°42' W 159°48'3 3.4 070 / 261022.1 2.7 1.5 4.3
2018-Feb-08 17:00N 55°42' W 159°54'1212.0 070 / 211022.5 2.8 2.8 4.1
2018-Feb-08 16:00N 55°30' W 159°54'6 6.0 090 / 241021.9 2.6 2.6 4.3
2018-Feb-08 15:00N 55°24' W 159°54'9 9.1 090 / 181022.7 2.8 2.8 4.3
2018-Feb-08 14:00N 55°30' W 159°42'3 3.4 080 / 211023.7 2.6 2.2 4.2
2018-Feb-08 13:00N 55°30' W 159°36'1413.8 090 / 201024.0 2.6 2.5 4.1
2018-Feb-08 12:00N 55°18' W 159°48'7 6.8 110 / 191023.8 2.7 2.2 4.4
2018-Feb-08 11:00N 55°18' W 159°36'1010.2 100 / 281024.1 2.8 1.7 4.2
2018-Feb-08 10:00N 55°18' W 159°18'6 6.0 100 / 171025.2 2.9 1.4 4.2
2018-Feb-08 09:00N 55°24' W 159°18'3 3.4 100 / 171025.4 2.9 1.3 4.1
2018-Feb-08 08:00N 55°24' W 159°24'6 6.0 100 / 161025.3 2.6 2.1 4.2
2018-Feb-08 07:00N 55°30' W 159°24'7 3.4 110 / 201025.1 2.9 2.1 4.2
2018-Feb-08 05:00N 55°24' W 159°18'1212.0 120 / 151024.4 2.9 2.9 4.1
2018-Feb-08 04:00N 55°12' W 159°18'1212.5 140 / 221024.0 2.9 2.9 4.2
2018-Feb-08 03:00N 55°24' W 159°12'1211.8 120 / 211024.3 2.9 2.9 4.2
2018-Feb-08 02:00N 55°30' W 158°54'1212.5 150 / 131024.4 3.4 2.2 4.1
2018-Feb-08 01:00N 55°18' W 159°00'7 6.9 160 / 121023.8 3.4 2.0 4.3
2018-Feb-08 00:00N 55°12' W 159°06'9 9.1 160 / 161023.8 3.6 2.1 4.3
2018-Feb-07 23:00N 55°18' W 158°54'0 0.0 150 / 181024.0 3.7 2.3 4.3
2018-Feb-07 22:00N 55°18' W 158°54'0 0.0 160 / 121024.3 3.6 2.9 4.2
2018-Feb-07 21:00N 55°18' W 158°54'7 6.9 170 / 121024.0 3.6 3.6 4.6
2018-Feb-07 20:00N 55°24' W 158°48'9 9.1 150 / 141023.7 3.2 3.2 4.1
2018-Feb-07 19:00N 55°30' W 158°36'7 6.9 180 / 181023.5 3.2 3.2 4.1
2018-Feb-07 18:00N 55°24' W 158°42'1413.8 180 / 161022.6 3.0 3.0 4.6
2018-Feb-07 17:00N 55°12' W 158°54'7 6.9 160 / 131021.8 3.0 3.0 4.3
2018-Feb-07 16:00N 55°06' W 158°48'9 9.1 150 / 161021.1 2.5 2.5 4.3
2018-Feb-07 15:00N 55°12' W 158°36'7 6.8 170 / 141020.9 3.0 3.0 4.5
2018-Feb-07 14:00N 55°12' W 158°24'7 6.9 180 / 101020.7 4.2 4.2 4.5
2018-Feb-07 13:00N 55°18' W 158°30'0 0.0 160 / 71020.5 4.3 4.3 4.3
2018-Feb-07 12:00N 55°18' W 158°30'6 6.0 160 / 71020.3 4.3 4.3 4.5
2018-Feb-07 11:00N 55°24' W 158°30'7 6.9 150 / 91019.8 4.6 3.4 4.5
2018-Feb-07 10:00N 55°18' W 158°24'1413.8 190 / 91019.8 4.4 4.1 4.4
2018-Feb-07 09:00N 55°06' W 158°36'7 6.9 180 / 101019.1 4.5 4.4 4.6
2018-Feb-07 08:00N 55°00' W 158°42'3 3.4 180 / 81018.6 4.4 4.4 4.3
2018-Feb-07 07:00N 55°00' W 158°36'9 9.1 160 / 91017.9 4.4 4.4 4.5
2018-Feb-07 06:00N 55°06' W 158°24'1413.8 180 / 101017.2 4.2 3.7 4.7
2018-Feb-07 05:00N 55°18' W 158°12'1010.2 180 / 161016.8 4.4 4.4 4.5
2018-Feb-07 04:00N 55°18' W 157°54'1010.2 180 / 151016.4 4.2 4.2 4.4
2018-Feb-07 03:00N 55°18' W 157°36'1413.7 190 / 151015.8 4.3 3.8 4.8
2018-Feb-07 02:00N 55°18' W 157°12'2412.0 190 / 201015.4 4.4 3.0 4.7
2018-Feb-07 00:00N 55°18' W 156°30'2423.7 200 / 131013.910.8 4.3 4.1 4.8
2018-Feb-06 23:00N 55°30' W 155°54'0 0.0 200 / 151015.2 4.6 2.9 5.3
2018-Feb-06 22:00N 55°30' W 155°54'1010.2 200 / 151015.2 4.6 2.9 5.3
2018-Feb-06 21:00N 55°30' W 155°36'   170 / 191015.2 3.8 3.8 5.3

Dump ship's entire track history